Time;durP1;ratioP1;P1;durP2;ratioP2;P2;SDS_P1;SDS_P2;PMS_P1;PMS_P2;Temp;Humidity;BMP_temperature;BMP_pressure;BME280_temperature;BME280_humidity;BME280_pressure;Samples;Min_cycle;Max_cycle;Signal;HPM_P1;HPM_P2
2021/09/16 00:00:14;;;;;;;4.80;1.70;;;;;;;;;;5099277;28;20448;-59
2021/09/16 00:02:43;;;;;;;5.60;1.97;;;;;;;;;;5099348;28;20515;-54
2021/09/16 00:08:14;;;;;;;4.63;1.43;;;;;;;;;;5107957;28;20597;-55
2021/09/16 00:10:41;;;;;;;7.20;1.80;;;;;;;;;;5119957;28;20502;-59
2021/09/16 00:13:09;;;;;;;7.13;1.87;;;;;;;;;;5120101;28;20460;-58
2021/09/16 00:15:36;;;;;;;5.10;1.93;;;;;;;;;;5119832;28;20564;-58
2021/09/16 00:18:05;;;;;;;5.73;1.70;;;;;;;;;;5119298;28;20479;-61
2021/09/16 00:20:32;;;;;;;5.40;2.07;;;;;;;;;;5120006;28;20442;-60
2021/09/16 00:23:00;;;;;;;7.77;2.50;;;;;;;;;;5119358;28;20486;-56
2021/09/16 00:25:28;;;;;;;4.87;2.30;;;;;;;;;;5119810;28;20522;-56
2021/09/16 00:27:55;;;;;;;10.83;1.93;;;;;;;;;;5119903;28;20461;-55
2021/09/16 00:30:23;;;;;;;5.07;1.57;;;;;;;;;;5119301;28;20445;-59
2021/09/16 00:32:50;;;;;;;2.70;1.30;;;;;;;;;;5119551;28;20478;-55
2021/09/16 00:35:19;;;;;;;4.77;1.40;;;;;;;;;;5119630;28;20460;-57
2021/09/16 00:37:46;;;;;;;8.63;2.40;;;;;;;;;;5135616;28;20474;-55
2021/09/16 00:40:14;;;;;;;5.40;1.90;;;;;;;;;;5139831;28;20460;-60
2021/09/16 00:42:44;;;;;;;5.70;1.93;;;;;;;;;;5131026;28;20451;-60
2021/09/16 00:45:12;;;;;;;7.93;2.00;;;;;;;;;;5119196;28;20477;-55
2021/09/16 00:47:40;;;;;;;5.17;2.10;;;;;;;;;;5127006;28;20443;-55
2021/09/16 00:50:14;;;;;;;9.83;2.13;;;;;;;;;;5139758;28;20450;-57
2021/09/16 00:52:42;;;;;;;6.17;2.10;;;;;;;;;;5139842;28;20458;-52
2021/09/16 00:55:10;;;;;;;6.07;1.90;;;;;;;;;;5140193;28;20438;-54
2021/09/16 00:57:39;;;;;;;6.23;2.63;;;;;;;;;;5139395;28;20478;-56
2021/09/16 01:00:08;;;;;;;8.83;2.20;;;;;;;;;;5139354;28;20434;-51
2021/09/16 01:02:37;;;;;;;6.87;1.80;;;;;;;;;;5139572;28;20415;-60
2021/09/16 01:05:08;;;;;;;4.83;2.23;;;;;;;;;;5138475;28;20500;-58
2021/09/16 01:07:36;;;;;;;6.23;2.03;;;;;;;;;;5139499;28;20477;-60
2021/09/16 01:10:11;;;;;;;4.37;1.90;;;;;;;;;;5139430;28;20446;-57
2021/09/16 01:12:39;;;;;;;3.80;1.50;;;;;;;;;;5137360;28;20478;-57
2021/09/16 01:15:07;;;;;;;4.70;1.60;;;;;;;;;;5139131;28;20451;-55
2021/09/16 01:17:35;;;;;;;4.80;1.73;;;;;;;;;;5139242;28;20466;-58
2021/09/16 01:20:02;;;;;;;3.27;1.40;;;;;;;;;;5138583;28;20473;-58
2021/09/16 01:22:32;;;;;;;3.13;1.87;;;;;;;;;;5139364;28;20703;-56
2021/09/16 01:24:59;;;;;;;6.27;1.80;;;;;;;;;;5133930;28;20479;-55
2021/09/16 01:27:27;;;;;;;4.40;1.77;;;;;;;;;;5118596;28;20447;-57
2021/09/16 01:30:14;;;;;;;5.17;1.67;;;;;;;;;;5118582;28;20473;-56
2021/09/16 01:32:41;;;;;;;2.43;1.30;;;;;;;;;;5132090;28;20532;-50
2021/09/16 01:35:09;;;;;;;4.60;1.60;;;;;;;;;;5138917;28;20454;-58
2021/09/16 01:37:55;;;;;;;3.60;1.60;;;;;;;;;;5139044;28;20537;-57
2021/09/16 01:40:25;;;;;;;4.87;2.10;;;;;;;;;;5136849;28;20486;-57
2021/09/16 01:42:52;;;;;;;3.47;1.13;;;;;;;;;;5138290;28;20446;-54
2021/09/16 01:45:30;;;;;;;4.40;1.27;;;;;;;;;;5120313;28;20470;-54
2021/09/16 01:47:57;;;;;;;3.80;1.37;;;;;;;;;;5117982;28;20441;-54
2021/09/16 01:50:26;;;;;;;3.83;1.33;;;;;;;;;;5117786;28;20484;-53
2021/09/16 01:53:04;;;;;;;3.20;1.13;;;;;;;;;;5128850;28;20442;-57
2021/09/16 01:55:33;;;;;;;3.03;1.40;;;;;;;;;;5124886;28;20451;-56
2021/09/16 01:58:00;;;;;;;4.10;1.40;;;;;;;;;;5118229;28;20475;-59
2021/09/16 02:00:46;;;;;;;6.67;2.10;;;;;;;;;;5123141;28;20455;-57
2021/09/16 02:03:13;;;;;;;7.23;1.50;;;;;;;;;;5125360;28;20496;-58
2021/09/16 02:05:41;;;;;;;4.93;1.53;;;;;;;;;;5126883;28;20446;-61
2021/09/16 02:11:13;;;;;;;4.70;1.53;;;;;;;;;;5131694;28;20495;-58
2021/09/16 02:13:40;;;;;;;3.13;1.30;;;;;;;;;;5137208;28;20431;-53
2021/09/16 02:16:13;;;;;;;8.97;2.43;;;;;;;;;;5121451;28;20431;-57
2021/09/16 02:18:40;;;;;;;4.73;1.50;;;;;;;;;;5117561;28;20475;-56
2021/09/16 02:21:09;;;;;;;9.60;3.10;;;;;;;;;;5117259;28;20462;-58
2021/09/16 02:23:51;;;;;;;4.40;1.43;;;;;;;;;;5117334;28;20500;-59
2021/09/16 02:26:20;;;;;;;3.77;1.70;;;;;;;;;;5117634;28;20455;-58
2021/09/16 02:28:48;;;;;;;4.90;1.60;;;;;;;;;;5117706;28;20456;-56
2021/09/16 02:31:28;;;;;;;4.10;1.70;;;;;;;;;;5117651;28;20504;-49
2021/09/16 02:33:55;;;;;;;5.30;1.67;;;;;;;;;;5117401;28;20511;-59
2021/09/16 02:36:22;;;;;;;6.50;1.83;;;;;;;;;;5117350;28;20459;-51
2021/09/16 02:38:50;;;;;;;9.33;1.90;;;;;;;;;;5117063;28;20491;-56
2021/09/16 02:41:17;;;;;;;4.60;1.73;;;;;;;;;;5132532;28;20474;-59
2021/09/16 02:43:46;;;;;;;3.70;1.73;;;;;;;;;;5137167;28;20968;-55
2021/09/16 02:46:20;;;;;;;4.87;1.37;;;;;;;;;;5129876;28;20481;-54
2021/09/16 02:48:50;;;;;;;6.60;1.73;;;;;;;;;;5116297;28;20467;-57
2021/09/16 02:51:17;;;;;;;5.60;1.50;;;;;;;;;;5116889;28;20443;-56
2021/09/16 02:53:44;;;;;;;3.90;1.67;;;;;;;;;;5116892;28;20873;-56
2021/09/16 02:56:11;;;;;;;4.77;1.93;;;;;;;;;;5116603;28;20637;-58
2021/09/16 02:58:40;;;;;;;4.80;1.80;;;;;;;;;;5116570;28;20497;-57
2021/09/16 03:01:14;;;;;;;6.33;1.60;;;;;;;;;;5129954;28;20465;-58
2021/09/16 03:03:42;;;;;;;4.70;1.87;;;;;;;;;;5136394;28;20475;-58
2021/09/16 03:06:18;;;;;;;5.17;1.67;;;;;;;;;;5136231;28;21044;-55
2021/09/16 03:08:45;;;;;;;5.07;2.23;;;;;;;;;;5131285;28;20549;-57
2021/09/16 03:11:14;;;;;;;3.70;1.70;;;;;;;;;;5137417;28;20460;-60
2021/09/16 03:13:41;;;;;;;6.20;2.00;;;;;;;;;;5137318;28;20480;-59
2021/09/16 03:16:08;;;;;;;6.13;2.60;;;;;;;;;;5136856;28;20427;-49
2021/09/16 03:21:41;;;;;;;6.80;2.50;;;;;;;;;;5135163;28;20503;-53
2021/09/16 03:24:13;;;;;;;7.53;1.70;;;;;;;;;;5136920;28;20437;-51
2021/09/16 03:27:04;;;;;;;5.13;1.90;;;;;;;;;;5136741;28;20425;-59
2021/09/16 03:29:33;;;;;;;7.73;2.10;;;;;;;;;;5141399;28;20445;-56
2021/09/16 03:32:04;;;;;;;6.20;2.30;;;;;;;;;;5142096;28;20480;-58
2021/09/16 03:34:38;;;;;;;5.40;2.47;;;;;;;;;;5141444;28;20434;-50
2021/09/16 03:37:07;;;;;;;8.33;3.00;;;;;;;;;;5141116;28;20449;-56
2021/09/16 03:39:35;;;;;;;11.27;3.10;;;;;;;;;;5140665;28;20673;-61
2021/09/16 03:42:11;;;;;;;6.40;2.60;;;;;;;;;;5140780;28;20446;-56
2021/09/16 03:44:40;;;;;;;6.83;2.40;;;;;;;;;;5140265;28;20442;-59
2021/09/16 03:47:08;;;;;;;3.30;2.03;;;;;;;;;;5140445;28;20482;-62
2021/09/16 03:49:38;;;;;;;4.23;1.97;;;;;;;;;;5139784;28;20438;-54
2021/09/16 03:52:08;;;;;;;8.10;2.50;;;;;;;;;;5123993;28;20664;-58
2021/09/16 03:54:38;;;;;;;10.03;4.23;;;;;;;;;;5120026;28;20466;-47
2021/09/16 03:57:11;;;;;;;14.47;5.17;;;;;;;;;;5120748;28;20505;-58
2021/09/16 03:59:39;;;;;;;4.70;2.67;;;;;;;;;;5125989;28;20486;-55
2021/09/16 04:02:07;;;;;;;6.83;3.20;;;;;;;;;;5130901;28;20441;-57
2021/09/16 04:04:34;;;;;;;11.20;4.57;;;;;;;;;;5138855;28;20523;-55
2021/09/16 04:07:03;;;;;;;7.23;4.30;;;;;;;;;;5139386;28;20458;-61
2021/09/16 04:09:32;;;;;;;8.23;3.67;;;;;;;;;;5139340;28;20506;-53
2021/09/16 04:11:59;;;;;;;9.70;3.33;;;;;;;;;;5139164;28;20442;-56
2021/09/16 04:14:29;;;;;;;7.20;4.20;;;;;;;;;;5139748;28;20477;-58
2021/09/16 04:16:56;;;;;;;15.23;4.13;;;;;;;;;;5139791;28;20450;-51
2021/09/16 04:19:24;;;;;;;6.13;3.27;;;;;;;;;;5138247;28;20474;-52
2021/09/16 04:21:51;;;;;;;6.53;3.57;;;;;;;;;;5123894;28;20474;-54
2021/09/16 04:24:19;;;;;;;9.13;3.80;;;;;;;;;;5139295;28;20458;-58
2021/09/16 04:27:06;;;;;;;12.20;5.23;;;;;;;;;;5139883;28;20422;-59
2021/09/16 04:29:35;;;;;;;12.40;6.67;;;;;;;;;;5136438;28;20451;-59
2021/09/16 04:32:02;;;;;;;10.53;6.10;;;;;;;;;;5139212;28;20457;-54
2021/09/16 04:34:37;;;;;;;9.57;6.00;;;;;;;;;;5139004;28;20480;-58
2021/09/16 04:37:06;;;;;;;11.50;5.20;;;;;;;;;;5139268;28;20475;-60
2021/09/16 04:39:36;;;;;;;9.70;4.97;;;;;;;;;;5138830;28;20541;-57
2021/09/16 04:42:35;;;;;;;12.40;5.10;;;;;;;;;;5138753;28;20436;-61
2021/09/16 04:45:04;;;;;;;15.80;8.00;;;;;;;;;;5139502;28;20454;-55
2021/09/16 04:50:39;;;;;;;8.50;5.20;;;;;;;;;;5136676;28;20546;-56
2021/09/16 04:53:08;;;;;;;7.83;4.40;;;;;;;;;;5139135;28;20446;-56
2021/09/16 04:56:04;;;;;;;11.60;4.70;;;;;;;;;;5138544;28;20449;-58
2021/09/16 04:58:31;;;;;;;7.83;4.17;;;;;;;;;;5117683;28;20497;-60
2021/09/16 05:01:01;;;;;;;8.13;4.37;;;;;;;;;;5119390;28;20481;-60
2021/09/16 05:03:29;;;;;;;12.47;5.27;;;;;;;;;;5133291;27;20453;-60
2021/09/16 05:05:56;;;;;;;10.77;5.70;;;;;;;;;;5159805;27;20466;-58
2021/09/16 05:08:25;;;;;;;11.73;4.80;;;;;;;;;;5125687;27;20467;-60
2021/09/16 05:10:52;;;;;;;8.40;4.00;;;;;;;;;;5133341;28;20447;-56
2021/09/16 05:13:27;;;;;;;9.03;4.07;;;;;;;;;;5123666;28;20485;-56
2021/09/16 05:16:30;;;;;;;6.77;4.60;;;;;;;;;;5100027;28;20447;-59
2021/09/16 05:19:03;;;;;;;6.97;4.03;;;;;;;;;;5120582;28;20483;-61
2021/09/16 05:21:34;;;;;;;6.30;3.73;;;;;;;;;;5119449;28;20481;-59
2021/09/16 05:24:02;;;;;;;10.20;3.77;;;;;;;;;;5138238;28;20449;-55
2021/09/16 05:26:29;;;;;;;9.23;4.30;;;;;;;;;;5137363;28;20438;-60
2021/09/16 05:28:57;;;;;;;12.10;5.00;;;;;;;;;;5137240;28;20429;-56
2021/09/16 05:31:25;;;;;;;9.00;5.10;;;;;;;;;;5136708;28;20490;-56
2021/09/16 05:33:59;;;;;;;11.87;4.60;;;;;;;;;;5137757;28;20450;-58
2021/09/16 05:36:29;;;;;;;9.70;4.93;;;;;;;;;;5136953;28;20435;-57
2021/09/16 05:38:57;;;;;;;10.00;4.60;;;;;;;;;;5137065;28;20485;-58
2021/09/16 05:41:39;;;;;;;8.60;4.67;;;;;;;;;;5137654;28;20507;-55
2021/09/16 05:44:07;;;;;;;6.10;3.97;;;;;;;;;;5128482;28;20462;-61
2021/09/16 05:46:35;;;;;;;8.47;4.40;;;;;;;;;;5119904;28;20467;-51
2021/09/16 05:49:05;;;;;;;6.83;4.30;;;;;;;;;;5116778;28;20439;-56
2021/09/16 05:51:37;;;;;;;13.40;9.50;;;;;;;;;;5099174;28;20432;-57
2021/09/16 05:54:05;;;;;;;17.07;4.60;;;;;;;;;;5121276;28;20530;-57
2021/09/16 05:56:38;;;;;;;6.43;4.07;;;;;;;;;;5131798;28;20523;-61
2021/09/16 05:59:06;;;;;;;11.53;5.20;;;;;;;;;;5135870;28;20481;-56
2021/09/16 06:01:53;;;;;;;12.57;4.23;;;;;;;;;;5137815;28;20450;-53
2021/09/16 06:04:21;;;;;;;10.60;4.33;;;;;;;;;;5128017;28;20539;-60
2021/09/16 06:06:50;;;;;;;8.20;4.03;;;;;;;;;;5136201;28;20446;-57
2021/09/16 06:12:22;;;;;;;9.07;3.60;;;;;;;;;;5127797;28;20483;-54
2021/09/16 06:14:49;;;;;;;7.00;3.70;;;;;;;;;;5136546;28;20442;-54
2021/09/16 06:17:16;;;;;;;11.10;5.90;;;;;;;;;;5125580;28;20461;-59
2021/09/16 06:19:48;;;;;;;6.60;3.00;;;;;;;;;;5125528;28;20470;-56
2021/09/16 06:22:37;;;;;;;10.63;4.13;;;;;;;;;;5125487;28;20435;-51
2021/09/16 06:25:23;;;;;;;9.07;4.80;;;;;;;;;;5137130;28;20434;-58
2021/09/16 06:28:07;;;;;;;11.43;3.77;;;;;;;;;;5118955;28;20451;-57
2021/09/16 06:30:35;;;;;;;7.90;2.90;;;;;;;;;;5115225;28;20467;-59
2021/09/16 06:33:08;;;;;;;10.57;3.80;;;;;;;;;;5117102;28;20443;-59
2021/09/16 06:35:42;;;;;;;7.03;3.67;;;;;;;;;;5128621;28;20502;-55
2021/09/16 06:38:38;;;;;;;11.67;3.40;;;;;;;;;;5136559;28;20471;-57
2021/09/16 06:41:53;;;;;;;7.00;3.47;;;;;;;;;;5136000;28;20454;-56
2021/09/16 06:44:20;;;;;;;15.37;4.57;;;;;;;;;;5135609;28;20443;-56
2021/09/16 06:46:50;;;;;;;7.70;3.37;;;;;;;;;;5135509;28;20446;-52
2021/09/16 06:49:26;;;;;;;7.60;3.90;;;;;;;;;;5116725;28;20481;-58
2021/09/16 06:51:55;;;;;;;9.10;4.17;;;;;;;;;;5134761;28;20434;-54
2021/09/16 06:54:35;;;;;;;11.50;4.73;;;;;;;;;;5135526;28;20415;-61
2021/09/16 06:57:02;;;;;;;8.07;4.60;;;;;;;;;;5136327;28;20458;-57
2021/09/16 06:59:30;;;;;;;10.70;3.80;;;;;;;;;;5126835;28;20496;-57
2021/09/16 07:02:04;;;;;;;9.13;3.80;;;;;;;;;;5113970;28;20477;-55
2021/09/16 07:04:33;;;;;;;7.10;4.30;;;;;;;;;;5127701;28;20494;-53
2021/09/16 07:07:03;;;;;;;6.70;3.90;;;;;;;;;;5135211;28;20458;-61
2021/09/16 07:09:40;;;;;;;12.57;4.53;;;;;;;;;;5118039;28;20482;-58
2021/09/16 07:12:08;;;;;;;6.87;5.07;;;;;;;;;;5134478;28;20870;-55
2021/09/16 07:14:35;;;;;;;9.40;4.00;;;;;;;;;;5136062;28;20435;-51
2021/09/16 07:17:04;;;;;;;9.93;4.90;;;;;;;;;;5135597;28;20476;-59
2021/09/16 07:19:35;;;;;;;8.00;4.33;;;;;;;;;;5135212;28;20482;-58
2021/09/16 07:22:09;;;;;;;8.30;4.93;;;;;;;;;;5130971;28;20439;-55
2021/09/16 07:27:42;;;;;;;9.60;4.23;;;;;;;;;;5128413;28;20461;-63
2021/09/16 07:30:11;;;;;;;9.53;5.20;;;;;;;;;;5135945;28;20506;-56
2021/09/16 07:32:46;;;;;;;9.50;5.53;;;;;;;;;;5122554;28;20494;-56
2021/09/16 07:35:14;;;;;;;6.03;4.13;;;;;;;;;;5114175;28;20482;-50
2021/09/16 07:37:41;;;;;;;14.13;5.80;;;;;;;;;;5114744;28;20423;-60
2021/09/16 07:40:24;;;;;;;15.93;7.60;;;;;;;;;;5114751;28;20538;-52
2021/09/16 07:42:53;;;;;;;9.50;6.13;;;;;;;;;;5114456;28;20443;-59
2021/09/16 07:45:21;;;;;;;18.20;7.80;;;;;;;;;;5115059;28;20455;-54
2021/09/16 07:47:53;;;;;;;11.13;6.70;;;;;;;;;;5115161;28;20459;-57
2021/09/16 07:50:20;;;;;;;11.33;7.03;;;;;;;;;;5115019;28;20487;-51
2021/09/16 07:53:21;;;;;;;11.23;5.50;;;;;;;;;;5115187;28;20443;-51
2021/09/16 07:55:48;;;;;;;11.40;6.47;;;;;;;;;;5114533;28;20558;-56
2021/09/16 07:58:18;;;;;;;11.50;6.00;;;;;;;;;;5114898;28;20470;-55
2021/09/16 08:01:09;;;;;;;11.43;5.93;;;;;;;;;;5123565;28;20476;-52
2021/09/16 08:03:42;;;;;;;12.20;6.07;;;;;;;;;;5135560;28;20519;-54
2021/09/16 08:06:10;;;;;;;10.73;7.07;;;;;;;;;;5135187;28;20457;-55
2021/09/16 08:11:41;;;;;;;14.93;5.90;;;;;;;;;;5132794;28;20544;-54
2021/09/16 08:14:10;;;;;;;12.87;6.53;;;;;;;;;;5137010;28;20445;-58
2021/09/16 08:19:43;;;;;;;10.00;5.67;;;;;;;;;;5137262;28;20540;-60
2021/09/16 08:24:55;;;;;;;12.83;7.20;;;;;;;;;;5132774;28;20437;-53
2021/09/16 08:27:29;;;;;;;10.67;5.97;;;;;;;;;;5139728;28;20466;-55
2021/09/16 08:30:05;;;;;;;6.37;4.40;;;;;;;;;;5122027;28;20457;-58
2021/09/16 08:32:59;;;;;;;8.10;5.37;;;;;;;;;;5118549;28;20420;-56
2021/09/16 08:35:27;;;;;;;8.50;4.67;;;;;;;;;;5118248;28;20480;-58
2021/09/16 08:37:59;;;;;;;7.47;4.47;;;;;;;;;;5118541;28;20451;-57
2021/09/16 08:40:38;;;;;;;10.20;4.40;;;;;;;;;;5117911;28;20559;-55
2021/09/16 08:43:08;;;;;;;9.60;4.93;;;;;;;;;;5117981;28;20443;-58
2021/09/16 08:45:37;;;;;;;6.97;4.07;;;;;;;;;;5125861;28;20451;-54
2021/09/16 08:48:16;;;;;;;11.33;5.37;;;;;;;;;;5133418;28;20432;-57
2021/09/16 08:50:43;;;;;;;10.53;4.53;;;;;;;;;;5116837;28;20435;-59
2021/09/16 08:53:35;;;;;;;7.40;3.70;;;;;;;;;;5121272;28;20681;-57
2021/09/16 08:56:06;;;;;;;4.60;3.17;;;;;;;;;;5138041;28;20442;-53
2021/09/16 08:58:34;;;;;;;13.43;3.30;;;;;;;;;;5138959;28;20446;-55
2021/09/16 09:01:03;;;;;;;10.63;3.27;;;;;;;;;;5131922;28;20497;-57
2021/09/16 09:03:31;;;;;;;9.40;3.00;;;;;;;;;;5137847;28;20453;-56
2021/09/16 09:06:42;;;;;;;3.50;2.30;;;;;;;;;;5117570;28;20427;-54
2021/09/16 09:09:16;;;;;;;10.27;2.43;;;;;;;;;;5054982;28;20438;-58
2021/09/16 09:12:03;;;;;;;6.43;2.53;;;;;;;;;;5110579;28;20454;-54
2021/09/16 09:14:31;;;;;;;4.57;2.07;;;;;;;;;;5116654;28;20507;-57
2021/09/16 09:17:17;;;;;;;6.20;2.80;;;;;;;;;;5116943;28;20459;-60
2021/09/16 09:19:49;;;;;;;5.03;2.07;;;;;;;;;;5117015;28;20548;-58
2021/09/16 09:22:17;;;;;;;7.10;2.40;;;;;;;;;;5137633;28;20449;-60
2021/09/16 09:24:45;;;;;;;4.67;2.10;;;;;;;;;;5136408;28;20434;-54
2021/09/16 09:27:41;;;;;;;8.70;2.60;;;;;;;;;;5137236;28;20458;-54
2021/09/16 09:30:10;;;;;;;9.17;2.73;;;;;;;;;;5137422;28;20451;-58
2021/09/16 09:35:54;;;;;;;8.37;2.60;;;;;;;;;;5131844;28;20418;-57
2021/09/16 09:38:23;;;;;;;3.03;1.80;;;;;;;;;;5116181;28;20528;-55
2021/09/16 09:40:51;;;;;;;5.50;2.20;;;;;;;;;;5116365;28;20482;-56
2021/09/16 09:43:23;;;;;;;4.20;2.50;;;;;;;;;;5117065;28;20443;-56
2021/09/16 09:46:07;;;;;;;6.77;3.87;;;;;;;;;;5122898;28;20535;-51
2021/09/16 09:48:34;;;;;;;7.30;3.70;;;;;;;;;;5135965;28;20755;-51
2021/09/16 09:51:03;;;;;;;7.10;2.77;;;;;;;;;;5136243;28;20642;-57
2021/09/16 09:53:45;;;;;;;4.80;2.30;;;;;;;;;;5125799;28;20435;-58
2021/09/16 09:56:14;;;;;;;7.70;2.40;;;;;;;;;;5115884;28;20459;-58
2021/09/16 09:58:41;;;;;;;6.53;2.30;;;;;;;;;;5116135;28;20456;-57
2021/09/16 10:01:38;;;;;;;6.30;2.20;;;;;;;;;;5115809;28;20514;-59
2021/09/16 10:04:28;;;;;;;8.97;2.97;;;;;;;;;;5132675;28;20837;-59
2021/09/16 10:06:59;;;;;;;9.83;3.23;;;;;;;;;;5136052;28;20457;-57
2021/09/16 10:09:28;;;;;;;5.13;2.60;;;;;;;;;;5126618;28;20458;-60
2021/09/16 10:12:05;;;;;;;5.93;3.53;;;;;;;;;;5136001;28;20443;-59
2021/09/16 10:14:42;;;;;;;5.00;3.00;;;;;;;;;;5130281;28;20472;-56
2021/09/16 10:17:09;;;;;;;10.73;4.27;;;;;;;;;;5134535;28;20473;-60
2021/09/16 10:19:37;;;;;;;11.50;6.30;;;;;;;;;;5135579;28;20506;-55
2021/09/16 10:22:16;;;;;;;11.37;5.17;;;;;;;;;;5136003;28;20464;-57
2021/09/16 10:24:50;;;;;;;7.03;2.87;;;;;;;;;;5136608;28;20450;-56
2021/09/16 10:27:34;;;;;;;6.27;2.77;;;;;;;;;;5135687;28;20456;-56
2021/09/16 10:30:19;;;;;;;5.73;2.93;;;;;;;;;;5135063;28;20507;-60
2021/09/16 10:32:46;;;;;;;8.27;2.93;;;;;;;;;;5135760;28;20518;-60
2021/09/16 10:35:18;;;;;;;6.23;2.57;;;;;;;;;;5135661;28;20446;-51
2021/09/16 10:37:52;;;;;;;4.57;2.60;;;;;;;;;;5135883;28;20407;-55
2021/09/16 10:40:36;;;;;;;4.37;2.40;;;;;;;;;;5135048;28;20458;-57
2021/09/16 10:43:09;;;;;;;11.77;3.90;;;;;;;;;;5115293;28;20466;-55
2021/09/16 10:45:38;;;;;;;6.13;3.60;;;;;;;;;;5134292;28;20434;-56
2021/09/16 10:48:38;;;;;;;4.30;2.60;;;;;;;;;;5135208;28;20447;-57
2021/09/16 10:51:10;;;;;;;6.13;3.03;;;;;;;;;;5133981;28;20458;-57
2021/09/16 10:53:45;;;;;;;7.87;2.60;;;;;;;;;;5131642;28;20769;-56
2021/09/16 10:56:44;;;;;;;13.27;4.10;;;;;;;;;;5135669;28;20445;-53
2021/09/16 10:59:11;;;;;;;8.80;2.90;;;;;;;;;;5033067;28;20453;-59
2021/09/16 11:02:02;;;;;;;12.30;4.47;;;;;;;;;;5034035;28;20474;-56
2021/09/16 11:04:58;;;;;;;4.50;2.97;;;;;;;;;;5033101;28;20470;-53
2021/09/16 11:07:50;;;;;;;6.60;2.60;;;;;;;;;;5043916;28;20490;-55
2021/09/16 11:10:36;;;;;;;8.87;2.60;;;;;;;;;;5135489;28;20450;-54
2021/09/16 11:13:25;;;;;;;4.93;2.37;;;;;;;;;;5123600;28;20447;-57
2021/09/16 11:16:12;;;;;;;6.23;3.00;;;;;;;;;;5115581;28;20478;-60
2021/09/16 11:21:52;;;;;;;7.10;3.10;;;;;;;;;;5115493;28;20513;-56
2021/09/16 11:27:32;;;;;;;4.97;2.60;;;;;;;;;;5125649;28;20461;-56
2021/09/16 11:30:17;;;;;;;7.37;3.17;;;;;;;;;;5113961;28;20451;-50
2021/09/16 11:32:51;;;;;;;7.17;3.33;;;;;;;;;;5131241;28;20435;-57
2021/09/16 11:38:04;;;;;;;5.20;2.40;;;;;;;;;;5105948;28;20439;-56
2021/09/16 11:40:34;;;;;;;5.57;2.70;;;;;;;;;;5120078;28;20474;-58
2021/09/16 11:43:09;;;;;;;14.63;3.97;;;;;;;;;;5117420;28;20459;-63
2021/09/16 11:45:43;;;;;;;4.67;2.90;;;;;;;;;;5119034;28;20449;-55
2021/09/16 11:51:31;;;;;;;10.33;2.80;;;;;;;;;;5178783;27;20289;-62
2021/09/16 11:54:21;;;;;;;13.73;3.80;;;;;;;;;;5171816;27;20454;-59
2021/09/16 12:03:03;;;;;;;4.43;2.63;;;;;;;;;;5163641;27;20488;-60
2021/09/16 12:05:54;;;;;;;4.27;2.20;;;;;;;;;;5153304;28;20455;-59
2021/09/16 12:08:28;;;;;;;5.40;3.13;;;;;;;;;;5151317;27;20475;-55
2021/09/16 12:11:14;;;;;;;4.80;2.90;;;;;;;;;;5151021;28;20484;-56
2021/09/16 12:13:48;;;;;;;8.73;2.67;;;;;;;;;;5138571;28;20496;-57
2021/09/16 12:16:22;;;;;;;5.73;3.20;;;;;;;;;;5152002;27;20460;-53
2021/09/16 12:18:56;;;;;;;8.60;3.67;;;;;;;;;;5151801;28;20433;-55
2021/09/16 12:21:38;;;;;;;4.60;3.20;;;;;;;;;;5139960;28;20439;-54
2021/09/16 12:24:09;;;;;;;5.20;2.80;;;;;;;;;;5132018;28;20445;-52
2021/09/16 12:26:39;;;;;;;6.43;3.00;;;;;;;;;;5139294;28;20479;-58
2021/09/16 12:29:29;;;;;;;3.70;2.40;;;;;;;;;;5151865;28;20461;-53
2021/09/16 12:32:00;;;;;;;5.97;3.07;;;;;;;;;;5152638;28;20478;-54
2021/09/16 12:34:33;;;;;;;4.33;2.83;;;;;;;;;;5134546;28;20459;-58
2021/09/16 12:37:02;;;;;;;5.93;2.90;;;;;;;;;;5152266;28;20574;-54
2021/09/16 12:39:35;;;;;;;4.90;2.53;;;;;;;;;;5152110;28;20462;-56
2021/09/16 12:42:14;;;;;;;4.67;2.73;;;;;;;;;;5151663;28;20446;-57
2021/09/16 12:44:43;;;;;;;7.90;3.20;;;;;;;;;;5140650;28;20454;-59
2021/09/16 12:47:25;;;;;;;6.07;2.93;;;;;;;;;;5144805;28;20481;-53
2021/09/16 12:50:16;;;;;;;4.77;2.83;;;;;;;;;;5136650;28;20477;-59
2021/09/16 12:53:00;;;;;;;7.73;3.47;;;;;;;;;;5148505;28;20505;-60
2021/09/16 12:55:49;;;;;;;6.70;2.10;;;;;;;;;;5142704;28;20493;-60
2021/09/16 12:58:31;;;;;;;4.20;2.37;;;;;;;;;;5148150;27;20450;-60
2021/09/16 13:01:06;;;;;;;3.53;2.07;;;;;;;;;;5137988;28;20435;-55
2021/09/16 13:03:33;;;;;;;7.60;2.70;;;;;;;;;;5136332;28;20457;-60
2021/09/16 13:06:08;;;;;;;4.07;2.40;;;;;;;;;;5135184;28;20430;-54
2021/09/16 13:08:41;;;;;;;4.00;2.33;;;;;;;;;;5115797;28;20430;-59
2021/09/16 13:11:35;;;;;;;5.30;2.30;;;;;;;;;;5117237;28;20463;-55
2021/09/16 13:14:10;;;;;;;4.60;2.40;;;;;;;;;;5116746;28;20463;-55
2021/09/16 13:16:46;;;;;;;4.60;2.20;;;;;;;;;;5118163;28;20468;-55
2021/09/16 13:19:15;;;;;;;6.03;3.17;;;;;;;;;;5130820;28;20443;-59
2021/09/16 13:21:45;;;;;;;4.30;2.00;;;;;;;;;;5118642;28;20458;-57
2021/09/16 13:24:12;;;;;;;8.20;5.23;;;;;;;;;;5136366;28;20797;-55
2021/09/16 13:26:50;;;;;;;7.33;3.90;;;;;;;;;;5136138;28;20446;-58
2021/09/16 13:29:19;;;;;;;6.70;4.70;;;;;;;;;;5131797;28;20458;-60
2021/09/16 13:31:47;;;;;;;4.60;2.23;;;;;;;;;;5134673;28;20508;-57
2021/09/16 13:34:21;;;;;;;4.50;2.00;;;;;;;;;;5135473;28;20454;-59
2021/09/16 13:36:49;;;;;;;7.67;2.03;;;;;;;;;;5116435;28;20452;-58
2021/09/16 13:39:20;;;;;;;5.07;2.40;;;;;;;;;;5131082;28;20523;-57
2021/09/16 13:41:47;;;;;;;7.00;1.90;;;;;;;;;;5122721;28;20494;-56
2021/09/16 13:44:16;;;;;;;7.73;3.00;;;;;;;;;;5116555;28;20469;-59
2021/09/16 13:46:48;;;;;;;4.30;2.60;;;;;;;;;;5130330;28;20481;-57
2021/09/16 13:49:30;;;;;;;5.10;1.80;;;;;;;;;;5130175;28;20465;-56
2021/09/16 13:51:58;;;;;;;7.30;3.50;;;;;;;;;;5135118;28;20495;-60
2021/09/16 13:54:26;;;;;;;6.60;2.10;;;;;;;;;;5136028;28;20441;-60
2021/09/16 13:56:54;;;;;;;7.57;1.80;;;;;;;;;;5136677;28;20461;-55
2021/09/16 13:59:21;;;;;;;4.10;1.50;;;;;;;;;;5135952;28;20426;-57
2021/09/16 14:02:00;;;;;;;5.47;2.03;;;;;;;;;;5135561;28;20523;-60
2021/09/16 14:04:28;;;;;;;5.43;2.10;;;;;;;;;;5130809;28;20449;-52
2021/09/16 14:06:55;;;;;;;10.40;2.50;;;;;;;;;;5130019;28;20521;-59
2021/09/16 14:12:28;;;;;;;5.67;1.97;;;;;;;;;;5130995;28;20548;-56
2021/09/16 14:15:12;;;;;;;5.13;2.23;;;;;;;;;;5133479;28;20518;-57
2021/09/16 14:21:08;;;;;;;3.73;1.77;;;;;;;;;;5094009;28;20460;-61
2021/09/16 14:26:18;;;;;;;5.47;1.80;;;;;;;;;;5101700;28;20547;-56
2021/09/16 14:28:46;;;;;;;4.23;2.10;;;;;;;;;;5109047;28;20477;-60
2021/09/16 14:31:13;;;;;;;4.67;1.80;;;;;;;;;;5104794;28;20495;-60
2021/09/16 14:33:47;;;;;;;8.53;2.40;;;;;;;;;;5113245;28;20467;-58
2021/09/16 14:36:16;;;;;;;7.93;3.63;;;;;;;;;;5120006;28;20453;-59
2021/09/16 14:38:44;;;;;;;5.80;2.70;;;;;;;;;;5104088;28;20463;-56
2021/09/16 14:41:17;;;;;;;4.93;2.57;;;;;;;;;;5112122;28;20451;-57
2021/09/16 14:43:44;;;;;;;4.30;2.40;;;;;;;;;;5111627;28;20570;-59
2021/09/16 14:46:18;;;;;;;6.17;2.50;;;;;;;;;;5112087;28;20447;-59
2021/09/16 14:48:46;;;;;;;4.93;2.07;;;;;;;;;;5105148;28;20462;-60
2021/09/16 14:51:44;;;;;;;8.03;4.33;;;;;;;;;;5113421;28;20527;-62
2021/09/16 14:54:22;;;;;;;9.27;2.87;;;;;;;;;;5118092;28;20485;-60
2021/09/16 14:56:55;;;;;;;7.23;2.50;;;;;;;;;;5120506;28;20455;-54
2021/09/16 14:59:23;;;;;;;5.00;2.33;;;;;;;;;;5107458;28;20483;-56
2021/09/16 15:01:50;;;;;;;7.43;2.37;;;;;;;;;;5103325;28;20447;-58
2021/09/16 15:04:31;;;;;;;5.90;2.50;;;;;;;;;;5106847;28;20467;-58
2021/09/16 15:07:07;;;;;;;3.87;2.93;;;;;;;;;;5111615;28;20453;-57
2021/09/16 15:09:36;;;;;;;9.87;2.63;;;;;;;;;;5118322;28;20481;-58
2021/09/16 15:12:03;;;;;;;3.70;1.70;;;;;;;;;;5132463;28;20506;-61
2021/09/16 15:14:36;;;;;;;3.70;1.93;;;;;;;;;;5131597;28;20491;-55
2021/09/16 15:17:08;;;;;;;6.53;2.07;;;;;;;;;;5133024;28;20478;-60
2021/09/16 15:19:47;;;;;;;4.23;2.37;;;;;;;;;;5117098;28;20560;-59
2021/09/16 15:22:17;;;;;;;7.23;4.57;;;;;;;;;;5133918;28;20469;-59
2021/09/16 15:24:47;;;;;;;4.73;2.67;;;;;;;;;;5130701;28;20486;-58
2021/09/16 15:27:18;;;;;;;6.20;2.47;;;;;;;;;;5125503;28;20459;-61
2021/09/16 15:35:17;;;;;;;4.00;2.70;;;;;;;;;;5131955;28;20474;-58
2021/09/16 15:37:48;;;;;;;4.77;2.50;;;;;;;;;;5131860;28;20207;-60
2021/09/16 15:40:29;;;;;;;5.43;2.13;;;;;;;;;;5120370;28;20468;-56
2021/09/16 15:42:57;;;;;;;5.40;2.60;;;;;;;;;;5129085;28;20458;-54
2021/09/16 15:45:29;;;;;;;3.93;2.67;;;;;;;;;;5129055;28;20465;-58
2021/09/16 15:47:57;;;;;;;5.57;2.77;;;;;;;;;;5115059;28;20454;-54
2021/09/16 15:50:48;;;;;;;4.87;2.47;;;;;;;;;;5133287;28;20500;-60
2021/09/16 15:53:32;;;;;;;5.50;2.10;;;;;;;;;;5123597;28;20489;-58
2021/09/16 15:56:44;;;;;;;6.10;2.47;;;;;;;;;;5118893;28;20519;-60
2021/09/16 15:59:14;;;;;;;5.30;3.00;;;;;;;;;;5119086;28;20765;-57
2021/09/16 16:01:42;;;;;;;6.60;2.93;;;;;;;;;;5123661;28;20945;-58
2021/09/16 16:04:23;;;;;;;10.00;3.63;;;;;;;;;;5127805;28;20458;-59
2021/09/16 16:06:53;;;;;;;7.00;2.40;;;;;;;;;;5128734;28;20469;-60
2021/09/16 16:09:21;;;;;;;4.70;2.80;;;;;;;;;;5129434;28;20486;-60
2021/09/16 16:11:53;;;;;;;3.53;1.93;;;;;;;;;;5132609;28;20664;-57
2021/09/16 16:14:33;;;;;;;3.70;1.60;;;;;;;;;;5132144;28;20446;-59
2021/09/16 16:17:02;;;;;;;5.33;2.40;;;;;;;;;;5117529;28;20535;-61
2021/09/16 16:19:30;;;;;;;3.60;1.77;;;;;;;;;;5117680;28;20477;-56